LEST/SCQ METAR and TAF weather

Enter ICAO airport designator
Station Type Date Time Source
LEST METAR 2019/02/22 22:30 UTC NOAA

LEST 222230Z 16007KT CAVOK 12/05 Q1027 NOSIG


Station Type Date Time Source
LEST Decoded METAR 2019/02/22 22:30 UTC NOAA

Santiago / Labacolla, Spain (LEST) 42-54N 008-26W 367M
Feb 22, 2019 - 05:30 PM EST / 2019.02.22 2230 UTC
Wind: from the SSE (160 degrees) at 8 MPH (7 KT):0
Visibility: greater than 7 mile(s):0
Temperature: 53 F (12 C)
Dew Point: 41 F (5 C)
Relative Humidity: 62%
Pressure (altimeter): 30.33 in. Hg (1027 hPa)
ob: LEST 222230Z 16007KT CAVOK 12/05 Q1027 NOSIG
cycle: 22

Station Type Date Time Source
LEST TAF 2019/02/22 18:27 UTC NOAA

TAF LEST 221700Z 2218/2318 16009KT 9999 FEW040 TX18/2315Z TN07/2306Z


Example: see airport list